Terminal Aerodrome Forecast
Issued by NWS Raleigh/Durham, NC

Home | Current Version | Previous Version | Text Only | Print | Product List | Glossary On
Versions: 1 2 3 4 5 6 7 8 9 10 11 12 13 14 15 16 17 18 19 20 21 22
000
FTUS42 KRAH 301120
TAFRDU
TAF
KRDU 301120Z 3012/3112 00000KT P6SM FEW110 FEW250
     FM301600 05008KT P6SM SCT040 SCT150
      TEMPO 3110/3112 BKN020=

USA.gov is the U.S. government's official web portal to all federal, state and local government web resources and services.